sensor_id;sensor_type;location;lat;lon;timestamp;P1;durP1;ratioP1;P2;durP2;ratioP2
78875;SDS011;68253;52.506;5.486;2023-02-28T00:00:35;6.45;;;1.23;;
78875;SDS011;68253;52.506;5.486;2023-02-28T00:03:01;5.97;;;1.33;;
78875;SDS011;68253;52.506;5.486;2023-02-28T00:05:28;6.50;;;1.40;;
78875;SDS011;68253;52.506;5.486;2023-02-28T00:07:54;6.50;;;1.33;;
78875;SDS011;68253;52.506;5.486;2023-02-28T00:10:22;6.68;;;1.30;;
78875;SDS011;68253;52.506;5.486;2023-02-28T00:15:17;6.63;;;1.52;;
78875;SDS011;68253;52.506;5.486;2023-02-28T00:17:43;6.18;;;1.30;;
78875;SDS011;68253;52.506;5.486;2023-02-28T00:20:10;5.70;;;1.27;;
78875;SDS011;68253;52.506;5.486;2023-02-28T00:22:38;3.75;;;1.08;;
78875;SDS011;68253;52.506;5.486;2023-02-28T00:25:06;8.20;;;1.40;;
78875;SDS011;68253;52.506;5.486;2023-02-28T00:27:33;6.72;;;1.27;;
78875;SDS011;68253;52.506;5.486;2023-02-28T00:30:03;5.75;;;1.40;;
78875;SDS011;68253;52.506;5.486;2023-02-28T00:32:30;6.57;;;1.60;;
78875;SDS011;68253;52.506;5.486;2023-02-28T00:34:56;5.68;;;1.20;;
78875;SDS011;68253;52.506;5.486;2023-02-28T00:37:22;6.38;;;1.33;;
78875;SDS011;68253;52.506;5.486;2023-02-28T00:39:49;5.53;;;1.10;;
78875;SDS011;68253;52.506;5.486;2023-02-28T00:42:15;6.57;;;1.42;;
78875;SDS011;68253;52.506;5.486;2023-02-28T00:44:41;6.28;;;1.52;;
78875;SDS011;68253;52.506;5.486;2023-02-28T00:47:07;6.07;;;1.10;;
78875;SDS011;68253;52.506;5.486;2023-02-28T00:49:33;6.20;;;1.40;;
78875;SDS011;68253;52.506;5.486;2023-02-28T00:52:01;5.80;;;1.42;;
78875;SDS011;68253;52.506;5.486;2023-02-28T00:54:28;5.43;;;1.00;;
78875;SDS011;68253;52.506;5.486;2023-02-28T00:56:54;5.88;;;1.10;;
78875;SDS011;68253;52.506;5.486;2023-02-28T00:59:20;6.22;;;1.20;;
78875;SDS011;68253;52.506;5.486;2023-02-28T01:01:47;4.05;;;1.10;;
78875;SDS011;68253;52.506;5.486;2023-02-28T01:04:13;5.70;;;1.30;;
78875;SDS011;68253;52.506;5.486;2023-02-28T01:06:39;4.07;;;0.80;;
78875;SDS011;68253;52.506;5.486;2023-02-28T01:09:09;4.20;;;0.95;;
78875;SDS011;68253;52.506;5.486;2023-02-28T01:11:36;3.75;;;1.10;;
78875;SDS011;68253;52.506;5.486;2023-02-28T01:14:03;4.55;;;0.93;;
78875;SDS011;68253;52.506;5.486;2023-02-28T01:16:29;4.10;;;1.10;;
78875;SDS011;68253;52.506;5.486;2023-02-28T01:18:56;4.93;;;0.90;;
78875;SDS011;68253;52.506;5.486;2023-02-28T01:21:22;3.97;;;0.88;;
78875;SDS011;68253;52.506;5.486;2023-02-28T01:23:50;4.13;;;1.15;;
78875;SDS011;68253;52.506;5.486;2023-02-28T01:26:20;5.88;;;1.10;;
78875;SDS011;68253;52.506;5.486;2023-02-28T01:28:47;4.90;;;1.20;;
78875;SDS011;68253;52.506;5.486;2023-02-28T01:31:15;3.75;;;0.95;;
78875;SDS011;68253;52.506;5.486;2023-02-28T01:33:43;4.35;;;1.00;;
78875;SDS011;68253;52.506;5.486;2023-02-28T01:36:14;4.05;;;1.00;;
78875;SDS011;68253;52.506;5.486;2023-02-28T01:38:45;4.13;;;0.90;;
78875;SDS011;68253;52.506;5.486;2023-02-28T01:41:19;5.03;;;0.88;;
78875;SDS011;68253;52.506;5.486;2023-02-28T01:46:19;3.65;;;0.85;;
78875;SDS011;68253;52.506;5.486;2023-02-28T01:51:49;3.33;;;0.90;;
78875;SDS011;68253;52.506;5.486;2023-02-28T01:54:22;3.63;;;0.90;;
78875;SDS011;68253;52.506;5.486;2023-02-28T01:56:56;4.13;;;1.00;;
78875;SDS011;68253;52.506;5.486;2023-02-28T01:59:29;4.10;;;0.95;;
78875;SDS011;68253;52.506;5.486;2023-02-28T02:02:01;4.00;;;0.88;;
78875;SDS011;68253;52.506;5.486;2023-02-28T02:04:32;3.17;;;0.80;;
78875;SDS011;68253;52.506;5.486;2023-02-28T02:07:04;2.88;;;0.80;;
78875;SDS011;68253;52.506;5.486;2023-02-28T02:09:31;3.58;;;0.70;;
78875;SDS011;68253;52.506;5.486;2023-02-28T02:11:57;3.08;;;0.82;;
78875;SDS011;68253;52.506;5.486;2023-02-28T02:14:35;2.70;;;0.90;;
78875;SDS011;68253;52.506;5.486;2023-02-28T02:17:34;3.15;;;0.80;;
78875;SDS011;68253;52.506;5.486;2023-02-28T02:28:11;3.72;;;0.82;;
78875;SDS011;68253;52.506;5.486;2023-02-28T02:36:46;2.00;;;0.60;;
78875;SDS011;68253;52.506;5.486;2023-02-28T02:39:42;3.50;;;0.88;;
78875;SDS011;68253;52.506;5.486;2023-02-28T02:42:05;4.28;;;1.02;;
78875;SDS011;68253;52.506;5.486;2023-02-28T02:44:43;2.95;;;0.70;;
78875;SDS011;68253;52.506;5.486;2023-02-28T02:47:14;3.47;;;0.90;;
78875;SDS011;68253;52.506;5.486;2023-02-28T02:49:46;2.45;;;0.80;;
78875;SDS011;68253;52.506;5.486;2023-02-28T02:52:18;2.28;;;0.80;;
78875;SDS011;68253;52.506;5.486;2023-02-28T02:54:48;2.85;;;0.80;;
78875;SDS011;68253;52.506;5.486;2023-02-28T02:57:23;3.20;;;0.82;;
78875;SDS011;68253;52.506;5.486;2023-02-28T02:59:58;3.50;;;0.95;;
78875;SDS011;68253;52.506;5.486;2023-02-28T03:02:25;4.38;;;1.00;;
78875;SDS011;68253;52.506;5.486;2023-02-28T03:05:00;2.88;;;0.77;;
78875;SDS011;68253;52.506;5.486;2023-02-28T03:07:32;3.80;;;0.77;;
78875;SDS011;68253;52.506;5.486;2023-02-28T03:09:58;3.53;;;0.70;;
78875;SDS011;68253;52.506;5.486;2023-02-28T03:12:28;3.85;;;0.70;;
78875;SDS011;68253;52.506;5.486;2023-02-28T03:15:15;3.20;;;0.82;;
78875;SDS011;68253;52.506;5.486;2023-02-28T03:18:01;3.10;;;0.82;;
78875;SDS011;68253;52.506;5.486;2023-02-28T03:20:40;3.10;;;0.70;;
78875;SDS011;68253;52.506;5.486;2023-02-28T03:23:23;3.47;;;0.80;;
78875;SDS011;68253;52.506;5.486;2023-02-28T03:26:34;3.72;;;0.88;;
78875;SDS011;68253;52.506;5.486;2023-02-28T03:29:00;2.38;;;0.50;;
78875;SDS011;68253;52.506;5.486;2023-02-28T03:31:30;3.53;;;0.65;;
78875;SDS011;68253;52.506;5.486;2023-02-28T03:36:38;3.22;;;0.70;;
78875;SDS011;68253;52.506;5.486;2023-02-28T03:39:18;3.88;;;0.65;;
78875;SDS011;68253;52.506;5.486;2023-02-28T03:41:53;3.25;;;0.70;;
78875;SDS011;68253;52.506;5.486;2023-02-28T03:44:44;2.92;;;0.80;;
78875;SDS011;68253;52.506;5.486;2023-02-28T03:47:20;3.42;;;0.70;;
78875;SDS011;68253;52.506;5.486;2023-02-28T03:49:55;2.92;;;0.60;;
78875;SDS011;68253;52.506;5.486;2023-02-28T03:52:29;2.83;;;0.60;;
78875;SDS011;68253;52.506;5.486;2023-02-28T03:55:01;3.03;;;0.77;;
78875;SDS011;68253;52.506;5.486;2023-02-28T04:00:18;2.85;;;0.70;;
78875;SDS011;68253;52.506;5.486;2023-02-28T04:02:50;2.58;;;0.75;;
78875;SDS011;68253;52.506;5.486;2023-02-28T04:05:18;3.10;;;0.70;;
78875;SDS011;68253;52.506;5.486;2023-02-28T04:07:46;5.07;;;0.88;;
78875;SDS011;68253;52.506;5.486;2023-02-28T04:10:12;3.58;;;0.80;;
78875;SDS011;68253;52.506;5.486;2023-02-28T04:12:39;2.88;;;0.60;;
78875;SDS011;68253;52.506;5.486;2023-02-28T04:15:05;3.40;;;0.60;;
78875;SDS011;68253;52.506;5.486;2023-02-28T04:17:32;2.00;;;0.60;;
78875;SDS011;68253;52.506;5.486;2023-02-28T04:19:58;2.75;;;0.80;;
78875;SDS011;68253;52.506;5.486;2023-02-28T04:22:24;3.47;;;0.80;;
78875;SDS011;68253;52.506;5.486;2023-02-28T04:24:53;2.58;;;0.50;;
78875;SDS011;68253;52.506;5.486;2023-02-28T04:27:20;2.00;;;0.60;;
78875;SDS011;68253;52.506;5.486;2023-02-28T04:29:46;4.60;;;0.70;;
78875;SDS011;68253;52.506;5.486;2023-02-28T04:32:13;2.72;;;0.60;;
78875;SDS011;68253;52.506;5.486;2023-02-28T04:34:39;4.85;;;1.08;;
78875;SDS011;68253;52.506;5.486;2023-02-28T04:37:05;2.85;;;0.63;;
78875;SDS011;68253;52.506;5.486;2023-02-28T04:39:34;2.03;;;0.50;;
78875;SDS011;68253;52.506;5.486;2023-02-28T04:42:01;2.40;;;0.60;;
78875;SDS011;68253;52.506;5.486;2023-02-28T04:44:28;2.42;;;0.70;;
78875;SDS011;68253;52.506;5.486;2023-02-28T04:46:54;2.47;;;0.70;;
78875;SDS011;68253;52.506;5.486;2023-02-28T04:49:20;2.72;;;0.60;;
78875;SDS011;68253;52.506;5.486;2023-02-28T04:51:46;1.98;;;0.60;;
78875;SDS011;68253;52.506;5.486;2023-02-28T04:54:13;3.08;;;0.60;;
78875;SDS011;68253;52.506;5.486;2023-02-28T04:56:39;2.13;;;0.52;;
78875;SDS011;68253;52.506;5.486;2023-02-28T04:59:05;2.90;;;0.65;;
78875;SDS011;68253;52.506;5.486;2023-02-28T05:01:32;2.95;;;0.80;;
78875;SDS011;68253;52.506;5.486;2023-02-28T05:04:00;3.10;;;0.70;;
78875;SDS011;68253;52.506;5.486;2023-02-28T05:06:28;3.67;;;0.90;;
78875;SDS011;68253;52.506;5.486;2023-02-28T05:08:55;1.23;;;0.45;;
78875;SDS011;68253;52.506;5.486;2023-02-28T05:11:28;3.47;;;1.00;;
78875;SDS011;68253;52.506;5.486;2023-02-28T05:14:04;2.65;;;0.60;;
78875;SDS011;68253;52.506;5.486;2023-02-28T05:16:37;3.40;;;0.50;;
78875;SDS011;68253;52.506;5.486;2023-02-28T05:19:03;2.28;;;0.63;;
78875;SDS011;68253;52.506;5.486;2023-02-28T05:21:30;2.08;;;0.50;;
78875;SDS011;68253;52.506;5.486;2023-02-28T05:23:59;2.13;;;0.60;;
78875;SDS011;68253;52.506;5.486;2023-02-28T05:26:30;1.25;;;0.45;;
78875;SDS011;68253;52.506;5.486;2023-02-28T05:28:56;1.67;;;0.50;;
78875;SDS011;68253;52.506;5.486;2023-02-28T05:31:23;3.00;;;0.70;;
78875;SDS011;68253;52.506;5.486;2023-02-28T05:33:49;1.23;;;0.50;;
78875;SDS011;68253;52.506;5.486;2023-02-28T05:36:15;2.35;;;0.80;;
78875;SDS011;68253;52.506;5.486;2023-02-28T05:38:41;4.32;;;0.75;;
78875;SDS011;68253;52.506;5.486;2023-02-28T05:41:08;3.33;;;0.60;;
78875;SDS011;68253;52.506;5.486;2023-02-28T05:43:35;1.60;;;0.60;;
78875;SDS011;68253;52.506;5.486;2023-02-28T05:46:05;3.72;;;0.90;;
78875;SDS011;68253;52.506;5.486;2023-02-28T05:48:33;2.85;;;0.60;;
78875;SDS011;68253;52.506;5.486;2023-02-28T05:51:01;2.08;;;0.60;;
78875;SDS011;68253;52.506;5.486;2023-02-28T05:53:28;1.67;;;0.60;;
78875;SDS011;68253;52.506;5.486;2023-02-28T05:55:54;2.67;;;0.68;;
78875;SDS011;68253;52.506;5.486;2023-02-28T05:58:21;3.08;;;0.80;;
78875;SDS011;68253;52.506;5.486;2023-02-28T06:00:48;1.95;;;0.50;;
78875;SDS011;68253;52.506;5.486;2023-02-28T06:03:14;2.20;;;0.60;;
78875;SDS011;68253;52.506;5.486;2023-02-28T06:05:41;1.80;;;0.60;;
78875;SDS011;68253;52.506;5.486;2023-02-28T06:08:07;2.22;;;0.50;;
78875;SDS011;68253;52.506;5.486;2023-02-28T06:10:34;3.63;;;0.80;;
78875;SDS011;68253;52.506;5.486;2023-02-28T06:13:01;1.35;;;0.50;;
78875;SDS011;68253;52.506;5.486;2023-02-28T06:15:28;3.15;;;0.70;;
78875;SDS011;68253;52.506;5.486;2023-02-28T06:17:55;3.20;;;0.80;;
78875;SDS011;68253;52.506;5.486;2023-02-28T06:20:22;2.75;;;0.60;;
78875;SDS011;68253;52.506;5.486;2023-02-28T06:22:49;2.13;;;0.68;;
78875;SDS011;68253;52.506;5.486;2023-02-28T06:25:17;2.08;;;0.60;;
78875;SDS011;68253;52.506;5.486;2023-02-28T06:27:43;3.33;;;0.70;;
78875;SDS011;68253;52.506;5.486;2023-02-28T06:30:10;1.95;;;0.68;;
78875;SDS011;68253;52.506;5.486;2023-02-28T06:32:37;1.27;;;0.50;;
78875;SDS011;68253;52.506;5.486;2023-02-28T06:35:03;2.42;;;0.40;;
78875;SDS011;68253;52.506;5.486;2023-02-28T06:37:30;1.40;;;0.40;;
78875;SDS011;68253;52.506;5.486;2023-02-28T06:39:57;0.77;;;0.40;;
78875;SDS011;68253;52.506;5.486;2023-02-28T06:42:23;2.28;;;0.60;;
78875;SDS011;68253;52.506;5.486;2023-02-28T06:44:54;2.42;;;0.60;;
78875;SDS011;68253;52.506;5.486;2023-02-28T06:47:21;2.97;;;0.60;;
78875;SDS011;68253;52.506;5.486;2023-02-28T06:49:47;1.38;;;0.40;;
78875;SDS011;68253;52.506;5.486;2023-02-28T06:52:13;2.17;;;0.50;;
78875;SDS011;68253;52.506;5.486;2023-02-28T06:54:40;1.63;;;0.40;;
78875;SDS011;68253;52.506;5.486;2023-02-28T06:57:06;2.78;;;0.75;;
78875;SDS011;68253;52.506;5.486;2023-02-28T06:59:33;2.63;;;0.70;;
78875;SDS011;68253;52.506;5.486;2023-02-28T07:02:00;2.40;;;0.50;;
78875;SDS011;68253;52.506;5.486;2023-02-28T07:04:27;2.42;;;0.57;;
78875;SDS011;68253;52.506;5.486;2023-02-28T07:06:54;1.63;;;0.50;;
78875;SDS011;68253;52.506;5.486;2023-02-28T07:09:22;1.60;;;0.43;;
78875;SDS011;68253;52.506;5.486;2023-02-28T07:11:48;1.80;;;0.50;;
78875;SDS011;68253;52.506;5.486;2023-02-28T07:14:14;1.65;;;0.47;;
78875;SDS011;68253;52.506;5.486;2023-02-28T07:16:41;1.77;;;0.43;;
78875;SDS011;68253;52.506;5.486;2023-02-28T07:19:07;1.70;;;0.50;;
78875;SDS011;68253;52.506;5.486;2023-02-28T07:21:33;1.52;;;0.50;;
78875;SDS011;68253;52.506;5.486;2023-02-28T07:23:59;2.45;;;0.70;;
78875;SDS011;68253;52.506;5.486;2023-02-28T07:26:25;1.92;;;0.60;;
78875;SDS011;68253;52.506;5.486;2023-02-28T07:28:51;1.67;;;0.45;;
78875;SDS011;68253;52.506;5.486;2023-02-28T07:31:18;1.42;;;0.45;;
78875;SDS011;68253;52.506;5.486;2023-02-28T07:33:44;1.65;;;0.50;;
78875;SDS011;68253;52.506;5.486;2023-02-28T07:36:14;2.83;;;0.98;;
78875;SDS011;68253;52.506;5.486;2023-02-28T07:38:44;2.15;;;0.52;;
78875;SDS011;68253;52.506;5.486;2023-02-28T07:41:14;2.47;;;0.75;;
78875;SDS011;68253;52.506;5.486;2023-02-28T07:43:45;1.95;;;0.50;;
78875;SDS011;68253;52.506;5.486;2023-02-28T07:46:12;1.88;;;0.55;;
78875;SDS011;68253;52.506;5.486;2023-02-28T07:48:43;1.88;;;0.60;;
78875;SDS011;68253;52.506;5.486;2023-02-28T07:51:09;2.25;;;0.50;;
78875;SDS011;68253;52.506;5.486;2023-02-28T07:53:36;2.30;;;0.73;;
78875;SDS011;68253;52.506;5.486;2023-02-28T07:56:02;2.30;;;0.65;;
78875;SDS011;68253;52.506;5.486;2023-02-28T07:58:29;2.42;;;0.60;;
78875;SDS011;68253;52.506;5.486;2023-02-28T08:00:56;2.85;;;0.60;;
78875;SDS011;68253;52.506;5.486;2023-02-28T08:03:23;2.50;;;0.60;;
78875;SDS011;68253;52.506;5.486;2023-02-28T08:05:50;3.15;;;0.80;;
78875;SDS011;68253;52.506;5.486;2023-02-28T08:08:18;2.60;;;0.60;;
78875;SDS011;68253;52.506;5.486;2023-02-28T08:10:44;2.63;;;0.57;;
78875;SDS011;68253;52.506;5.486;2023-02-28T08:13:10;1.98;;;0.60;;
78875;SDS011;68253;52.506;5.486;2023-02-28T08:15:36;2.15;;;0.60;;
78875;SDS011;68253;52.506;5.486;2023-02-28T08:18:02;2.47;;;0.65;;
78875;SDS011;68253;52.506;5.486;2023-02-28T08:20:28;2.60;;;0.80;;
78875;SDS011;68253;52.506;5.486;2023-02-28T08:22:54;2.05;;;0.50;;
78875;SDS011;68253;52.506;5.486;2023-02-28T08:25:21;2.28;;;0.55;;
78875;SDS011;68253;52.506;5.486;2023-02-28T08:27:47;1.52;;;0.50;;
78875;SDS011;68253;52.506;5.486;2023-02-28T08:30:13;2.70;;;0.70;;
78875;SDS011;68253;52.506;5.486;2023-02-28T08:32:40;2.53;;;0.75;;
78875;SDS011;68253;52.506;5.486;2023-02-28T08:35:06;2.30;;;0.57;;
78875;SDS011;68253;52.506;5.486;2023-02-28T08:37:34;0.88;;;0.35;;
78875;SDS011;68253;52.506;5.486;2023-02-28T08:40:01;2.35;;;0.70;;
78875;SDS011;68253;52.506;5.486;2023-02-28T08:42:29;2.20;;;0.65;;
78875;SDS011;68253;52.506;5.486;2023-02-28T08:44:55;4.68;;;0.80;;
78875;SDS011;68253;52.506;5.486;2023-02-28T08:47:22;2.00;;;0.60;;
78875;SDS011;68253;52.506;5.486;2023-02-28T08:49:48;1.63;;;0.45;;
78875;SDS011;68253;52.506;5.486;2023-02-28T08:52:14;3.30;;;0.63;;
78875;SDS011;68253;52.506;5.486;2023-02-28T08:54:40;1.95;;;0.50;;
78875;SDS011;68253;52.506;5.486;2023-02-28T08:57:06;2.22;;;0.70;;
78875;SDS011;68253;52.506;5.486;2023-02-28T08:59:32;1.90;;;0.70;;
78875;SDS011;68253;52.506;5.486;2023-02-28T09:01:58;2.72;;;0.70;;
78875;SDS011;68253;52.506;5.486;2023-02-28T09:04:24;2.63;;;0.70;;
78875;SDS011;68253;52.506;5.486;2023-02-28T09:06:51;2.25;;;0.60;;
78875;SDS011;68253;52.506;5.486;2023-02-28T09:09:17;2.53;;;0.68;;
78875;SDS011;68253;52.506;5.486;2023-02-28T09:11:43;3.05;;;0.70;;
78875;SDS011;68253;52.506;5.486;2023-02-28T09:14:09;3.80;;;0.68;;
78875;SDS011;68253;52.506;5.486;2023-02-28T09:16:35;1.77;;;0.50;;
78875;SDS011;68253;52.506;5.486;2023-02-28T09:19:01;7.53;;;1.20;;
78875;SDS011;68253;52.506;5.486;2023-02-28T09:21:27;3.55;;;0.60;;
78875;SDS011;68253;52.506;5.486;2023-02-28T09:23:54;2.63;;;0.63;;
78875;SDS011;68253;52.506;5.486;2023-02-28T09:26:23;1.63;;;0.55;;
78875;SDS011;68253;52.506;5.486;2023-02-28T09:28:51;2.70;;;0.60;;
78875;SDS011;68253;52.506;5.486;2023-02-28T09:31:22;2.03;;;0.70;;
78875;SDS011;68253;52.506;5.486;2023-02-28T09:33:52;2.60;;;0.60;;
78875;SDS011;68253;52.506;5.486;2023-02-28T09:36:19;2.67;;;0.50;;
78875;SDS011;68253;52.506;5.486;2023-02-28T09:38:45;3.35;;;0.90;;
78875;SDS011;68253;52.506;5.486;2023-02-28T09:41:22;2.60;;;0.68;;
78875;SDS011;68253;52.506;5.486;2023-02-28T09:43:57;1.40;;;0.55;;
78875;SDS011;68253;52.506;5.486;2023-02-28T09:46:38;2.70;;;0.70;;
78875;SDS011;68253;52.506;5.486;2023-02-28T09:49:14;1.77;;;0.57;;
78875;SDS011;68253;52.506;5.486;2023-02-28T09:51:50;2.85;;;0.60;;
78875;SDS011;68253;52.506;5.486;2023-02-28T09:54:21;3.15;;;0.68;;
78875;SDS011;68253;52.506;5.486;2023-02-28T09:56:49;2.63;;;0.60;;
78875;SDS011;68253;52.506;5.486;2023-02-28T10:02:21;3.30;;;0.80;;
78875;SDS011;68253;52.506;5.486;2023-02-28T10:10:40;2.35;;;0.60;;
78875;SDS011;68253;52.506;5.486;2023-02-28T10:13:19;2.92;;;0.70;;
78875;SDS011;68253;52.506;5.486;2023-02-28T10:16:11;2.08;;;0.55;;
78875;SDS011;68253;52.506;5.486;2023-02-28T10:21:10;2.67;;;0.73;;
78875;SDS011;68253;52.506;5.486;2023-02-28T10:24:47;2.70;;;0.70;;
78875;SDS011;68253;52.506;5.486;2023-02-28T10:27:12;2.88;;;0.63;;
78875;SDS011;68253;52.506;5.486;2023-02-28T10:29:45;4.50;;;0.82;;
78875;SDS011;68253;52.506;5.486;2023-02-28T10:32:14;2.30;;;0.57;;
78875;SDS011;68253;52.506;5.486;2023-02-28T10:34:44;3.78;;;1.05;;
78875;SDS011;68253;52.506;5.486;2023-02-28T10:37:17;3.28;;;0.98;;
78875;SDS011;68253;52.506;5.486;2023-02-28T10:39:45;3.95;;;0.80;;
78875;SDS011;68253;52.506;5.486;2023-02-28T10:42:30;3.95;;;0.80;;
78875;SDS011;68253;52.506;5.486;2023-02-28T10:47:48;5.72;;;1.00;;
78875;SDS011;68253;52.506;5.486;2023-02-28T10:53:23;5.40;;;1.23;;
78875;SDS011;68253;52.506;5.486;2023-02-28T10:55:57;3.90;;;1.00;;
78875;SDS011;68253;52.506;5.486;2023-02-28T10:58:55;4.15;;;0.98;;
78875;SDS011;68253;52.506;5.486;2023-02-28T11:01:46;4.78;;;0.80;;
78875;SDS011;68253;52.506;5.486;2023-02-28T11:06:47;3.63;;;0.80;;
78875;SDS011;68253;52.506;5.486;2023-02-28T11:09:33;2.90;;;0.70;;
78875;SDS011;68253;52.506;5.486;2023-02-28T11:12:01;4.00;;;0.95;;
78875;SDS011;68253;52.506;5.486;2023-02-28T11:14:30;3.25;;;0.80;;
78875;SDS011;68253;52.506;5.486;2023-02-28T11:17:11;2.55;;;0.65;;
78875;SDS011;68253;52.506;5.486;2023-02-28T11:19:44;3.20;;;0.88;;
78875;SDS011;68253;52.506;5.486;2023-02-28T11:22:16;3.00;;;0.70;;
78875;SDS011;68253;52.506;5.486;2023-02-28T11:24:49;2.13;;;0.70;;
78875;SDS011;68253;52.506;5.486;2023-02-28T11:28:05;3.47;;;0.80;;
78875;SDS011;68253;52.506;5.486;2023-02-28T11:30:24;2.85;;;0.77;;
78875;SDS011;68253;52.506;5.486;2023-02-28T11:32:55;4.55;;;0.70;;
78875;SDS011;68253;52.506;5.486;2023-02-28T11:35:26;1.85;;;0.60;;
78875;SDS011;68253;52.506;5.486;2023-02-28T11:38:04;2.38;;;0.65;;
78875;SDS011;68253;52.506;5.486;2023-02-28T11:40:39;2.50;;;0.70;;
78875;SDS011;68253;52.506;5.486;2023-02-28T11:43:16;3.10;;;0.70;;
78875;SDS011;68253;52.506;5.486;2023-02-28T11:54:33;2.25;;;0.60;;
78875;SDS011;68253;52.506;5.486;2023-02-28T12:06:00;2.33;;;0.57;;
78875;SDS011;68253;52.506;5.486;2023-02-28T12:08:56;1.92;;;0.60;;
78875;SDS011;68253;52.506;5.486;2023-02-28T12:20:03;2.38;;;0.70;;
78875;SDS011;68253;52.506;5.486;2023-02-28T12:25:22;3.97;;;0.80;;
78875;SDS011;68253;52.506;5.486;2023-02-28T12:28:13;3.08;;;0.70;;
78875;SDS011;68253;52.506;5.486;2023-02-28T12:33:52;2.80;;;0.73;;
78875;SDS011;68253;52.506;5.486;2023-02-28T12:36:22;1.75;;;0.60;;
78875;SDS011;68253;52.506;5.486;2023-02-28T12:41:19;3.60;;;0.82;;
78875;SDS011;68253;52.506;5.486;2023-02-28T12:44:02;3.15;;;0.70;;
78875;SDS011;68253;52.506;5.486;2023-02-28T12:46:35;2.30;;;0.68;;
78875;SDS011;68253;52.506;5.486;2023-02-28T12:49:27;2.33;;;0.82;;
78875;SDS011;68253;52.506;5.486;2023-02-28T12:52:06;2.45;;;0.80;;
78875;SDS011;68253;52.506;5.486;2023-02-28T12:54:44;3.00;;;0.70;;
78875;SDS011;68253;52.506;5.486;2023-02-28T12:59:54;2.30;;;0.60;;
78875;SDS011;68253;52.506;5.486;2023-02-28T13:11:06;3.60;;;0.77;;
78875;SDS011;68253;52.506;5.486;2023-02-28T13:13:32;3.30;;;0.90;;
78875;SDS011;68253;52.506;5.486;2023-02-28T13:18:29;2.25;;;0.80;;
78875;SDS011;68253;52.506;5.486;2023-02-28T13:21:08;2.45;;;0.65;;
78875;SDS011;68253;52.506;5.486;2023-02-28T13:29:00;2.35;;;0.63;;
78875;SDS011;68253;52.506;5.486;2023-02-28T13:31:27;2.13;;;0.50;;
78875;SDS011;68253;52.506;5.486;2023-02-28T13:38:51;1.88;;;0.50;;
78875;SDS011;68253;52.506;5.486;2023-02-28T13:46:27;2.42;;;0.60;;
78875;SDS011;68253;52.506;5.486;2023-02-28T13:48:53;3.65;;;0.70;;
78875;SDS011;68253;52.506;5.486;2023-02-28T13:51:28;1.88;;;0.50;;
78875;SDS011;68253;52.506;5.486;2023-02-28T13:54:04;2.83;;;0.82;;
78875;SDS011;68253;52.506;5.486;2023-02-28T13:56:59;2.95;;;0.75;;
78875;SDS011;68253;52.506;5.486;2023-02-28T14:02:48;1.40;;;0.50;;
78875;SDS011;68253;52.506;5.486;2023-02-28T14:05:19;2.15;;;0.50;;
78875;SDS011;68253;52.506;5.486;2023-02-28T14:07:56;2.17;;;0.80;;
78875;SDS011;68253;52.506;5.486;2023-02-28T14:10:28;2.40;;;0.52;;
78875;SDS011;68253;52.506;5.486;2023-02-28T14:13:02;2.55;;;0.73;;
78875;SDS011;68253;52.506;5.486;2023-02-28T14:18:18;1.40;;;0.57;;
78875;SDS011;68253;52.506;5.486;2023-02-28T14:20:47;1.75;;;0.60;;
78875;SDS011;68253;52.506;5.486;2023-02-28T14:28:56;2.22;;;0.50;;
78875;SDS011;68253;52.506;5.486;2023-02-28T14:36:35;1.75;;;0.50;;
78875;SDS011;68253;52.506;5.486;2023-02-28T14:39:06;1.88;;;0.63;;
78875;SDS011;68253;52.506;5.486;2023-02-28T14:41:35;3.40;;;0.70;;
78875;SDS011;68253;52.506;5.486;2023-02-28T14:44:13;2.17;;;0.70;;
78875;SDS011;68253;52.506;5.486;2023-02-28T14:46:40;2.00;;;0.60;;
78875;SDS011;68253;52.506;5.486;2023-02-28T14:49:18;2.85;;;0.73;;
78875;SDS011;68253;52.506;5.486;2023-02-28T14:51:45;3.17;;;0.70;;
78875;SDS011;68253;52.506;5.486;2023-02-28T14:54:13;1.98;;;0.60;;
78875;SDS011;68253;52.506;5.486;2023-02-28T15:04:43;2.33;;;0.80;;
78875;SDS011;68253;52.506;5.486;2023-02-28T15:07:25;2.05;;;0.65;;
78875;SDS011;68253;52.506;5.486;2023-02-28T15:12:53;2.80;;;0.80;;
78875;SDS011;68253;52.506;5.486;2023-02-28T15:15:24;2.28;;;0.63;;
78875;SDS011;68253;52.506;5.486;2023-02-28T15:18:07;2.42;;;0.50;;
78875;SDS011;68253;52.506;5.486;2023-02-28T15:20:40;2.40;;;0.70;;
78875;SDS011;68253;52.506;5.486;2023-02-28T15:23:09;1.80;;;0.60;;
78875;SDS011;68253;52.506;5.486;2023-02-28T15:25:36;2.15;;;0.57;;
78875;SDS011;68253;52.506;5.486;2023-02-28T15:28:03;2.00;;;0.63;;
78875;SDS011;68253;52.506;5.486;2023-02-28T15:30:30;1.88;;;0.50;;
78875;SDS011;68253;52.506;5.486;2023-02-28T15:35:43;2.40;;;0.73;;
78875;SDS011;68253;52.506;5.486;2023-02-28T15:40:50;2.25;;;0.60;;
78875;SDS011;68253;52.506;5.486;2023-02-28T15:43:24;2.03;;;0.50;;
78875;SDS011;68253;52.506;5.486;2023-02-28T15:45:56;2.03;;;0.65;;
78875;SDS011;68253;52.506;5.486;2023-02-28T15:48:27;1.50;;;0.57;;
78875;SDS011;68253;52.506;5.486;2023-02-28T15:53:51;1.85;;;0.63;;
78875;SDS011;68253;52.506;5.486;2023-02-28T15:56:26;1.50;;;0.47;;
78875;SDS011;68253;52.506;5.486;2023-02-28T15:58:55;1.85;;;0.55;;
78875;SDS011;68253;52.506;5.486;2023-02-28T16:01:24;2.30;;;0.65;;
78875;SDS011;68253;52.506;5.486;2023-02-28T16:03:54;1.77;;;0.50;;
78875;SDS011;68253;52.506;5.486;2023-02-28T16:08:51;2.03;;;0.60;;
78875;SDS011;68253;52.506;5.486;2023-02-28T16:11:19;2.80;;;0.60;;
78875;SDS011;68253;52.506;5.486;2023-02-28T16:13:47;1.90;;;0.60;;
78875;SDS011;68253;52.506;5.486;2023-02-28T16:16:17;2.00;;;0.80;;
78875;SDS011;68253;52.506;5.486;2023-02-28T16:18:45;2.03;;;0.70;;
78875;SDS011;68253;52.506;5.486;2023-02-28T16:21:11;1.83;;;0.52;;
78875;SDS011;68253;52.506;5.486;2023-02-28T16:23:37;2.72;;;0.70;;
78875;SDS011;68253;52.506;5.486;2023-02-28T16:26:04;2.70;;;0.80;;
78875;SDS011;68253;52.506;5.486;2023-02-28T16:28:32;2.30;;;0.70;;
78875;SDS011;68253;52.506;5.486;2023-02-28T16:31:01;2.05;;;0.70;;
78875;SDS011;68253;52.506;5.486;2023-02-28T16:33:29;2.88;;;0.90;;
78875;SDS011;68253;52.506;5.486;2023-02-28T16:35:59;1.88;;;0.50;;
78875;SDS011;68253;52.506;5.486;2023-02-28T16:38:26;1.30;;;0.50;;
78875;SDS011;68253;52.506;5.486;2023-02-28T16:40:53;3.45;;;0.98;;
78875;SDS011;68253;52.506;5.486;2023-02-28T16:43:23;2.13;;;0.57;;
78875;SDS011;68253;52.506;5.486;2023-02-28T16:45:54;1.70;;;0.55;;
78875;SDS011;68253;52.506;5.486;2023-02-28T16:48:23;2.85;;;0.88;;
78875;SDS011;68253;52.506;5.486;2023-02-28T16:50:50;2.42;;;0.70;;
78875;SDS011;68253;52.506;5.486;2023-02-28T16:53:17;2.60;;;0.70;;
78875;SDS011;68253;52.506;5.486;2023-02-28T16:55:43;1.55;;;0.55;;
78875;SDS011;68253;52.506;5.486;2023-02-28T16:58:13;1.98;;;0.70;;
78875;SDS011;68253;52.506;5.486;2023-02-28T17:00:41;3.63;;;0.85;;
78875;SDS011;68253;52.506;5.486;2023-02-28T17:03:22;1.98;;;0.60;;
78875;SDS011;68253;52.506;5.486;2023-02-28T17:05:50;2.53;;;0.70;;
78875;SDS011;68253;52.506;5.486;2023-02-28T17:08:17;1.98;;;0.60;;
78875;SDS011;68253;52.506;5.486;2023-02-28T17:10:43;2.53;;;0.63;;
78875;SDS011;68253;52.506;5.486;2023-02-28T17:13:09;2.88;;;0.80;;
78875;SDS011;68253;52.506;5.486;2023-02-28T17:15:35;2.17;;;0.70;;
78875;SDS011;68253;52.506;5.486;2023-02-28T17:18:03;4.30;;;0.88;;
78875;SDS011;68253;52.506;5.486;2023-02-28T17:20:29;3.75;;;0.80;;
78875;SDS011;68253;52.506;5.486;2023-02-28T17:22:56;3.65;;;0.90;;
78875;SDS011;68253;52.506;5.486;2023-02-28T17:25:22;3.13;;;0.75;;
78875;SDS011;68253;52.506;5.486;2023-02-28T17:27:49;2.83;;;0.95;;
78875;SDS011;68253;52.506;5.486;2023-02-28T17:30:17;2.30;;;0.80;;
78875;SDS011;68253;52.506;5.486;2023-02-28T17:32:46;2.72;;;0.80;;
78875;SDS011;68253;52.506;5.486;2023-02-28T17:35:12;4.20;;;0.90;;